hwlogo.jpg (8581 bytes)
Home Your Weather Products Services Weather On Your Site Contact
HW Version Logo
Weather Info
Your Weather (Options)
Canadian Weather
International Weather
Enter your " Place, State", US Zip Code or ICAO:  
Forecast Information Radar Information
Peterborough, Ontario, Canada  Lat: 44.23N, Lon: 78.37W
ICAO Used: CYPQ
Current Conditions
Updated: 10:18 AM EST TUE FEB 20 2018
Sun & Moon Information
Rain
Rain
Temp: 3°C
Humidity: 100%
Wind Speed: CALM
Barometer: 1016 mb
Dewpoint: 3°C
Heat Index: 3°C
Wind Chill: 3°C
Civil Twilight: 6:36 AM EST Moon Phase:
Waxing Crescent Moon
Sunrise: 7:06 AM EST
Sunset: 5:47 PM EST
Civil Twilight: 6:17 PM EST
Forecast for Peterborough, ON:
(Forecast based on TAF for )
0700 PM EST TUE FEB 20 2018
  
AFTERNOON EVENING OVERNIGHT
Light
Rain
Light
Rain
Light
Rain
ZoneCast:
Dated: 0700 PM EST TUE FEB 20 2018
Afternoon...Changing to light rain and overcast skies with winds from the southwest at 14 mph.

Evening...Overcast and light rain with winds from the southwest at 14 mph.

Overnight...Overcast and light rain with winds from the southwest at 14 mph.

Original Encoded TAF:
Dated: 0700 PM EST TUE FEB 20 2018
2018/02/20 14:39
TAF TAF CYPQ 201338Z 2014/2102 VRB03KT WS015/22040KT 1SM -RA BR OVC003 
      TEMPO 2014/2018 6SM BR OVC006 
     FM201800 22012KT 2SM -RA BR OVC004 
      TEMPO 2018/2102 6SM BR OVC008 
      RMK FCST BASED ON AUTO OBS. NXT FCST BY 202000Z